Time;durP1;ratioP1;P1;durP2;ratioP2;P2;SDS_P1;SDS_P2;PMS_P1;PMS_P2;Temp;Humidity;BMP_temperature;BMP_pressure;BME280_temperature;BME280_humidity;BME280_pressure;Samples;Min_cycle;Max_cycle;Signal;HPM_P1;HPM_P2
2023/07/06 00:01:13;;;;;;;7.55;4.00;;;12.10;99.90;;;;;;5074200;28;20116;-59
2023/07/06 00:03:39;;;;;;;6.43;4.00;;;12.00;99.90;;;;;;5074481;28;20108;-59
2023/07/06 00:06:08;;;;;;;6.68;4.10;;;12.00;99.90;;;;;;5074449;28;20531;-58
2023/07/06 00:08:34;;;;;;;10.52;4.88;;;12.00;99.90;;;;;;5065180;28;20047;-58
2023/07/06 00:11:00;;;;;;;6.88;3.92;;;12.00;99.90;;;;;;5073024;28;20055;-59
2023/07/06 00:13:26;;;;;;;6.10;3.90;;;12.00;99.90;;;;;;5074173;28;20040;-59
2023/07/06 00:15:51;;;;;;;6.60;4.38;;;12.00;99.90;;;;;;5074000;28;20086;-58
2023/07/06 00:18:22;;;;;;;7.13;4.55;;;12.00;99.90;;;;;;5074071;28;20044;-59
2023/07/06 00:20:49;;;;;;;6.85;4.15;;;12.00;99.90;;;;;;5073547;28;20036;-59
2023/07/06 00:23:16;;;;;;;7.60;4.30;;;12.00;99.90;;;;;;5074008;28;20091;-59
2023/07/06 00:25:41;;;;;;;5.10;3.90;;;12.00;99.90;;;;;;5073778;28;20036;-58
2023/07/06 00:28:11;;;;;;;9.82;4.32;;;12.00;99.90;;;;;;5073577;28;20045;-59
2023/07/06 00:33:17;;;;;;;7.35;4.75;;;12.00;99.90;;;;;;5073852;28;20051;-58
2023/07/06 00:35:44;;;;;;;7.03;4.05;;;12.00;99.90;;;;;;5073401;28;20044;-58
2023/07/06 00:38:14;;;;;;;6.18;4.70;;;12.00;99.90;;;;;;5073351;28;20048;-59
2023/07/06 00:40:49;;;;;;;9.57;4.50;;;12.00;99.90;;;;;;5073255;28;20040;-58
2023/07/06 00:43:21;;;;;;;9.13;5.20;;;12.00;99.90;;;;;;5074019;28;20116;-59
2023/07/06 00:45:51;;;;;;;8.25;4.90;;;12.00;99.90;;;;;;5073283;28;20036;-59
2023/07/06 00:48:35;;;;;;;7.00;4.43;;;12.00;99.90;;;;;;5073673;28;20044;-59
2023/07/06 00:51:37;;;;;;;8.35;4.70;;;12.00;99.90;;;;;;5073730;28;20036;-58
2023/07/06 00:54:16;;;;;;;9.48;5.13;;;12.00;99.90;;;;;;5031223;28;20037;-59
2023/07/06 00:56:45;;;;;;;9.82;4.57;;;12.00;99.90;;;;;;5031452;28;20514;-59
2023/07/06 00:59:14;;;;;;;9.63;4.82;;;11.90;99.90;;;;;;5031273;28;20419;-58
2023/07/06 01:01:44;;;;;;;9.63;5.28;;;11.90;99.90;;;;;;5030915;28;20492;-58
2023/07/06 01:04:13;;;;;;;14.80;6.57;;;11.80;99.90;;;;;;5030949;28;20073;-58
2023/07/06 01:06:47;;;;;;;8.55;5.40;;;11.80;99.90;;;;;;5031183;28;20038;-59
2023/07/06 01:09:14;;;;;;;8.13;5.93;;;11.90;99.90;;;;;;5030961;28;20091;-59
2023/07/06 01:11:43;;;;;;;7.20;5.13;;;11.90;99.90;;;;;;5031068;28;20037;-59
2023/07/06 01:14:15;;;;;;;9.57;6.13;;;11.80;99.90;;;;;;5030809;28;20100;-59
2023/07/06 01:17:03;;;;;;;9.10;5.57;;;11.90;99.90;;;;;;5031176;28;20045;-59
2023/07/06 01:19:32;;;;;;;9.77;6.05;;;11.90;99.90;;;;;;5031021;28;20045;-59
2023/07/06 01:22:35;;;;;;;9.02;5.78;;;11.80;99.90;;;;;;5030948;28;20064;-58
2023/07/06 01:25:34;;;;;;;10.52;5.82;;;11.80;99.90;;;;;;5020358;28;20037;-58
2023/07/06 01:28:30;;;;;;;10.88;6.32;;;11.90;99.90;;;;;;5048366;28;20080;-59
2023/07/06 01:31:15;;;;;;;9.45;6.70;;;11.80;99.90;;;;;;5073025;28;20116;-59
2023/07/06 01:33:59;;;;;;;12.35;6.22;;;11.90;99.90;;;;;;5072813;28;20470;-58
2023/07/06 01:36:42;;;;;;;9.25;6.75;;;11.90;99.90;;;;;;5072956;28;20036;-59
2023/07/06 01:39:22;;;;;;;9.60;6.32;;;11.90;99.90;;;;;;5072644;28;20102;-58
2023/07/06 01:42:09;;;;;;;10.77;6.00;;;11.90;99.90;;;;;;5060281;28;20024;-58
2023/07/06 01:44:37;;;;;;;10.52;6.57;;;11.80;99.90;;;;;;5071757;28;20045;-58
2023/07/06 01:47:03;;;;;;;9.50;6.40;;;11.90;99.90;;;;;;5072075;28;20040;-58
2023/07/06 01:49:30;;;;;;;13.07;7.18;;;11.90;99.90;;;;;;5077084;28;20068;-59
2023/07/06 01:52:26;;;;;;;12.90;6.75;;;11.80;99.90;;;;;;5068015;28;20490;-59
2023/07/06 01:55:23;;;;;;;9.40;7.00;;;11.80;99.90;;;;;;5070028;28;20040;-59
2023/07/06 01:58:12;;;;;;;8.38;5.88;;;11.90;99.90;;;;;;5071023;28;20033;-59
2023/07/06 02:00:44;;;;;;;11.68;7.38;;;12.00;99.90;;;;;;5063773;28;20490;-59
2023/07/06 02:03:12;;;;;;;15.13;7.70;;;12.00;99.90;;;;;;5071018;28;20032;-59
2023/07/06 02:05:40;;;;;;;9.32;7.05;;;12.10;99.90;;;;;;5076891;28;20036;-59
2023/07/06 02:08:10;;;;;;;10.02;7.40;;;12.10;99.90;;;;;;5076542;28;20510;-59
2023/07/06 02:10:36;;;;;;;10.23;7.32;;;12.10;99.90;;;;;;5062241;28;20032;-59
2023/07/06 02:13:03;;;;;;;11.57;7.47;;;12.20;99.90;;;;;;5076738;28;20494;-59
2023/07/06 02:15:30;;;;;;;12.00;7.35;;;12.20;99.90;;;;;;5076270;28;20044;-59
2023/07/06 02:17:56;;;;;;;11.27;8.05;;;12.20;99.90;;;;;;5076596;28;20107;-59
2023/07/06 02:20:22;;;;;;;12.07;7.82;;;12.30;99.90;;;;;;5074946;28;20387;-59
2023/07/06 02:22:49;;;;;;;9.95;7.90;;;12.30;99.90;;;;;;5075114;28;20028;-59
2023/07/06 02:25:15;;;;;;;10.52;8.90;;;12.40;99.90;;;;;;5076404;28;20040;-59
2023/07/06 02:27:41;;;;;;;12.07;7.55;;;12.30;99.90;;;;;;5061977;28;20036;-59
2023/07/06 02:30:07;;;;;;;14.20;9.27;;;12.30;99.90;;;;;;5076238;28;20041;-59
2023/07/06 02:32:34;;;;;;;12.32;8.50;;;12.40;99.90;;;;;;5076257;28;20060;-59
2023/07/06 02:35:02;;;;;;;9.18;8.13;;;12.40;99.90;;;;;;5076139;28;20044;-58
2023/07/06 02:37:29;;;;;;;12.23;8.40;;;12.30;99.90;;;;;;5075861;28;20066;-59
2023/07/06 02:39:58;;;;;;;11.90;8.82;;;12.40;99.90;;;;;;5075742;28;20507;-59
2023/07/06 02:42:24;;;;;;;17.17;9.65;;;12.50;99.90;;;;;;5076169;28;20048;-59
2023/07/06 02:44:50;;;;;;;11.82;8.35;;;12.40;99.90;;;;;;5076161;28;20037;-59
2023/07/06 02:47:16;;;;;;;16.48;8.48;;;12.40;99.90;;;;;;5074038;28;20387;-58
2023/07/06 02:49:41;;;;;;;14.18;8.48;;;12.50;99.90;;;;;;5075820;28;20028;-59
2023/07/06 02:52:07;;;;;;;14.82;8.43;;;12.40;99.90;;;;;;5075623;28;20047;-59
2023/07/06 02:54:33;;;;;;;13.10;9.30;;;12.50;99.90;;;;;;5075556;28;20060;-59
2023/07/06 02:57:00;;;;;;;15.18;9.63;;;12.50;99.90;;;;;;5075758;28;20082;-59
2023/07/06 02:59:29;;;;;;;17.92;8.77;;;12.50;99.90;;;;;;5075689;28;20436;-59
2023/07/06 03:01:56;;;;;;;13.55;9.48;;;12.40;99.90;;;;;;5062241;28;20106;-59
2023/07/06 03:04:22;;;;;;;15.55;8.50;;;12.40;99.90;;;;;;5075647;28;20072;-59
2023/07/06 03:06:48;;;;;;;10.75;8.80;;;12.40;99.90;;;;;;5075291;28;20060;-59
2023/07/06 03:09:14;;;;;;;17.60;8.45;;;12.40;99.90;;;;;;5075715;28;20481;-58
2023/07/06 03:11:44;;;;;;;11.85;8.93;;;12.40;99.90;;;;;;5075299;28;20044;-58
2023/07/06 03:14:10;;;;;;;10.05;7.72;;;12.30;99.90;;;;;;5075438;28;20478;-59
2023/07/06 03:16:40;;;;;;;12.88;8.88;;;12.30;99.90;;;;;;5075280;28;20120;-59
2023/07/06 03:19:10;;;;;;;14.32;8.93;;;12.40;99.90;;;;;;5074352;28;20032;-59
2023/07/06 03:21:38;;;;;;;12.95;8.70;;;12.30;99.90;;;;;;5075215;28;20474;-59
2023/07/06 03:24:06;;;;;;;14.43;7.88;;;12.20;99.90;;;;;;5074009;28;20505;-59
2023/07/06 03:26:36;;;;;;;14.15;9.07;;;12.20;99.90;;;;;;5075597;28;20119;-59
2023/07/06 03:29:04;;;;;;;12.82;8.20;;;12.20;99.90;;;;;;5074980;28;20075;-59
2023/07/06 03:31:32;;;;;;;12.70;7.70;;;12.10;99.90;;;;;;5075428;28;20483;-59
2023/07/06 03:33:58;;;;;;;12.48;7.35;;;12.10;99.90;;;;;;5075031;28;20037;-59
2023/07/06 03:36:23;;;;;;;13.73;9.25;;;12.20;99.90;;;;;;5073498;28;20510;-59
2023/07/06 03:38:49;;;;;;;11.77;7.82;;;12.10;99.90;;;;;;5074577;28;20080;-59
2023/07/06 03:41:18;;;;;;;12.32;8.25;;;12.20;99.90;;;;;;5075048;28;20068;-59
2023/07/06 03:43:45;;;;;;;13.88;8.25;;;12.10;99.90;;;;;;5074572;28;20040;-59
2023/07/06 03:46:12;;;;;;;12.63;8.35;;;12.20;99.90;;;;;;5074882;28;20488;-59
2023/07/06 03:48:40;;;;;;;11.45;7.38;;;12.20;99.90;;;;;;5074890;28;20040;-59
2023/07/06 03:51:07;;;;;;;12.18;7.18;;;12.20;99.90;;;;;;5074320;28;20137;-59
2023/07/06 03:53:35;;;;;;;12.85;7.32;;;12.20;99.90;;;;;;5074637;28;20047;-59
2023/07/06 03:56:02;;;;;;;11.43;7.10;;;12.20;99.90;;;;;;5074538;28;20070;-59
2023/07/06 03:58:29;;;;;;;8.85;7.07;;;12.20;99.90;;;;;;5074666;28;20328;-59
2023/07/06 04:00:58;;;;;;;9.40;6.88;;;12.20;99.90;;;;;;5062161;28;20048;-59
2023/07/06 04:03:26;;;;;;;12.07;7.45;;;12.30;99.90;;;;;;5073030;28;20056;-59
2023/07/06 04:05:53;;;;;;;11.27;7.20;;;12.30;99.90;;;;;;5074298;28;20036;-59
2023/07/06 04:08:21;;;;;;;9.10;6.43;;;12.30;99.90;;;;;;5074204;28;20025;-59
2023/07/06 04:10:48;;;;;;;10.73;6.22;;;12.30;99.90;;;;;;5073847;28;20041;-59
2023/07/06 04:13:14;;;;;;;10.77;7.13;;;12.40;99.90;;;;;;5074128;28;20036;-59
2023/07/06 04:15:45;;;;;;;14.25;7.15;;;12.50;99.90;;;;;;5073993;28;20044;-59
2023/07/06 04:18:11;;;;;;;12.23;7.75;;;12.60;99.90;;;;;;5074060;28;20453;-59
2023/07/06 04:20:37;;;;;;;12.35;7.32;;;12.60;99.90;;;;;;5074065;28;20082;-59
2023/07/06 04:23:04;;;;;;;12.57;7.20;;;12.70;99.90;;;;;;5074151;28;20033;-59
2023/07/06 04:25:32;;;;;;;12.93;7.55;;;12.80;99.90;;;;;;5073609;28;20442;-59
2023/07/06 04:28:02;;;;;;;12.35;6.65;;;12.80;99.90;;;;;;5073743;28;20048;-59
2023/07/06 04:30:29;;;;;;;12.27;7.35;;;12.80;99.90;;;;;;5073794;28;20044;-59
2023/07/06 04:32:55;;;;;;;13.27;7.05;;;12.90;99.90;;;;;;5073908;28;20033;-59
2023/07/06 04:35:21;;;;;;;11.32;7.55;;;13.00;99.90;;;;;;5073754;28;20502;-58
2023/07/06 04:37:49;;;;;;;14.52;7.40;;;12.90;99.90;;;;;;5073530;28;20078;-59
2023/07/06 04:40:20;;;;;;;15.27;7.28;;;12.90;99.90;;;;;;5073668;28;20123;-59
2023/07/06 04:42:49;;;;;;;12.95;7.10;;;13.00;99.90;;;;;;5073794;28;20379;-59
2023/07/06 04:45:16;;;;;;;15.63;6.85;;;13.20;99.90;;;;;;5073726;28;20043;-59
2023/07/06 04:47:44;;;;;;;13.45;6.78;;;13.10;99.90;;;;;;5073558;28;20065;-59
2023/07/06 04:50:22;;;;;;;15.57;7.20;;;13.10;99.90;;;;;;5073758;28;20045;-59
2023/07/06 04:52:55;;;;;;;12.25;7.25;;;13.10;99.90;;;;;;5073484;28;20037;-59
2023/07/06 04:55:27;;;;;;;11.30;7.45;;;13.20;99.90;;;;;;5072182;28;20047;-59
2023/07/06 04:57:56;;;;;;;13.77;8.20;;;13.10;99.90;;;;;;5073567;28;20044;-59
2023/07/06 05:00:28;;;;;;;14.73;7.50;;;13.20;99.90;;;;;;5065786;28;20044;-60
2023/07/06 05:02:58;;;;;;;13.50;7.72;;;13.20;99.90;;;;;;5067763;28;20040;-59
2023/07/06 05:05:25;;;;;;;14.02;7.88;;;13.30;99.90;;;;;;5073393;28;20048;-59
2023/07/06 05:07:51;;;;;;;14.43;7.43;;;13.40;99.90;;;;;;5073242;28;20045;-59
2023/07/06 05:10:17;;;;;;;11.23;7.20;;;13.50;99.90;;;;;;5073443;28;20063;-59
2023/07/06 05:12:44;;;;;;;18.30;8.15;;;13.60;99.90;;;;;;5072944;28;20139;-59
2023/07/06 05:15:10;;;;;;;12.05;7.57;;;13.80;99.90;;;;;;5073189;28;20045;-59
2023/07/06 05:17:37;;;;;;;15.35;8.18;;;13.80;99.90;;;;;;5073513;28;20033;-59
2023/07/06 05:20:06;;;;;;;16.02;7.95;;;14.00;99.90;;;;;;5071650;28;20028;-59
2023/07/06 05:22:32;;;;;;;14.00;8.23;;;14.10;99.90;;;;;;5072326;28;20037;-59
2023/07/06 05:24:57;;;;;;;17.63;8.60;;;14.20;99.90;;;;;;5073115;28;20040;-59
2023/07/06 05:27:24;;;;;;;15.95;8.20;;;14.30;99.90;;;;;;5057658;28;20048;-59
2023/07/06 05:29:50;;;;;;;18.40;8.73;;;14.40;99.90;;;;;;5071747;28;20029;-59
2023/07/06 05:32:16;;;;;;;16.90;8.88;;;14.30;99.90;;;;;;5072810;28;20039;-59
2023/07/06 05:34:42;;;;;;;15.00;8.43;;;14.30;99.90;;;;;;5072889;28;20040;-59
2023/07/06 05:37:07;;;;;;;19.25;7.80;;;14.30;99.90;;;;;;5072939;28;20040;-59
2023/07/06 05:39:33;;;;;;;24.35;8.90;;;14.50;99.90;;;;;;5072645;28;20053;-59
2023/07/06 05:41:59;;;;;;;16.20;9.88;;;14.50;99.90;;;;;;5072744;28;20049;-59
2023/07/06 05:44:24;;;;;;;19.02;8.35;;;14.50;99.90;;;;;;5072917;28;20036;-59
2023/07/06 05:46:50;;;;;;;18.88;7.93;;;14.60;99.90;;;;;;5073250;28;20501;-59
2023/07/06 05:49:15;;;;;;;13.90;8.75;;;14.80;99.90;;;;;;5072729;28;20032;-59
2023/07/06 05:51:41;;;;;;;13.43;8.50;;;14.90;99.90;;;;;;5072933;28;20040;-59
2023/07/06 05:54:07;;;;;;;14.82;8.27;;;15.00;99.90;;;;;;5072684;28;20040;-59
2023/07/06 05:56:32;;;;;;;24.80;8.60;;;15.20;99.90;;;;;;5072761;28;20076;-59
2023/07/06 05:59:04;;;;;;;16.25;8.65;;;15.30;99.90;;;;;;5071359;28;20157;-59
2023/07/06 06:01:30;;;;;;;18.75;9.40;;;15.40;99.90;;;;;;5058455;28;20045;-59
2023/07/06 06:03:56;;;;;;;13.60;8.00;;;15.40;99.90;;;;;;5072888;28;20075;-59
2023/07/06 06:06:22;;;;;;;17.20;8.35;;;15.50;99.90;;;;;;5072340;28;20076;-59
2023/07/06 06:08:49;;;;;;;27.88;9.05;;;15.70;99.90;;;;;;5072630;28;20036;-59
2023/07/06 06:11:15;;;;;;;22.20;9.20;;;15.70;99.90;;;;;;5072445;28;20045;-59
2023/07/06 06:13:43;;;;;;;16.15;8.43;;;15.80;99.90;;;;;;5071701;28;20040;-59
2023/07/06 06:16:11;;;;;;;15.68;8.48;;;15.90;99.90;;;;;;5072698;28;20119;-59
2023/07/06 06:18:39;;;;;;;16.83;9.25;;;16.00;99.90;;;;;;5072584;28;20039;-59
2023/07/06 06:21:06;;;;;;;16.08;8.80;;;16.10;99.90;;;;;;5072620;28;20056;-59
2023/07/06 06:23:32;;;;;;;17.60;8.65;;;16.20;99.90;;;;;;5072387;28;20040;-59
2023/07/06 06:25:59;;;;;;;22.33;8.82;;;16.40;99.90;;;;;;5072486;28;20040;-59
2023/07/06 06:28:25;;;;;;;18.33;8.55;;;16.40;99.90;;;;;;5072321;28;20037;-59
2023/07/06 06:30:51;;;;;;;21.27;8.73;;;16.50;99.90;;;;;;5072195;28;20040;-59
2023/07/06 06:33:17;;;;;;;19.58;8.02;;;16.60;99.90;;;;;;5073370;28;20057;-60
2023/07/06 06:35:44;;;;;;;21.00;8.38;;;16.70;99.90;;;;;;5075665;28;20039;-59
2023/07/06 06:38:11;;;;;;;22.05;9.60;;;16.80;99.90;;;;;;5075869;28;20039;-59
2023/07/06 06:40:37;;;;;;;20.50;8.52;;;16.90;99.90;;;;;;5075784;28;20495;-59
2023/07/06 06:43:05;;;;;;;13.60;7.07;;;17.20;99.90;;;;;;5075713;28;20108;-59
2023/07/06 06:45:31;;;;;;;15.27;7.65;;;17.30;99.90;;;;;;5075613;28;20090;-58
2023/07/06 06:47:57;;;;;;;15.18;7.15;;;17.40;99.90;;;;;;5075988;28;20039;-59
2023/07/06 06:50:23;;;;;;;14.85;7.65;;;17.60;99.90;;;;;;5076136;28;20040;-59
2023/07/06 06:52:50;;;;;;;20.95;7.55;;;17.70;99.90;;;;;;5075625;28;20116;-59
2023/07/06 06:55:16;;;;;;;19.73;7.70;;;17.90;99.90;;;;;;5075487;28;20107;-59
2023/07/06 06:57:43;;;;;;;22.98;8.27;;;18.20;99.90;;;;;;5075925;28;20097;-58
2023/07/06 07:00:09;;;;;;;17.25;7.40;;;18.10;99.90;;;;;;5069873;28;20041;-59
2023/07/06 07:02:38;;;;;;;14.32;7.03;;;18.20;99.90;;;;;;5067498;28;20115;-59
2023/07/06 07:05:05;;;;;;;15.25;7.25;;;18.30;99.90;;;;;;5075631;28;20090;-59
2023/07/06 07:07:31;;;;;;;17.05;7.22;;;18.40;99.90;;;;;;5075667;28;20033;-58
2023/07/06 07:09:57;;;;;;;16.98;7.18;;;18.50;99.90;;;;;;5075256;28;20048;-59
2023/07/06 07:12:22;;;;;;;14.43;6.88;;;18.70;99.90;;;;;;5075399;28;20033;-59
2023/07/06 07:14:48;;;;;;;17.45;6.35;;;18.90;99.90;;;;;;5057144;28;20048;-59
2023/07/06 07:17:14;;;;;;;18.35;5.85;;;19.20;99.90;;;;;;5075058;28;20501;-59
2023/07/06 07:19:41;;;;;;;15.43;7.18;;;19.40;99.90;;;;;;5075385;28;20033;-59
2023/07/06 07:22:06;;;;;;;20.33;6.30;;;19.40;99.90;;;;;;5075275;28;20051;-59
2023/07/06 07:24:33;;;;;;;15.35;6.03;;;19.70;99.90;;;;;;5075350;28;20565;-59
2023/07/06 07:27:00;;;;;;;15.48;5.85;;;19.90;99.90;;;;;;5074929;28;20127;-59
2023/07/06 07:29:26;;;;;;;15.07;4.53;;;20.00;99.90;;;;;;5075061;28;20073;-59
2023/07/06 07:31:52;;;;;;;10.90;4.40;;;20.20;99.90;;;;;;5075158;28;20116;-59
2023/07/06 07:34:20;;;;;;;12.13;5.30;;;20.10;99.90;;;;;;5075238;28;20040;-59
2023/07/06 07:36:46;;;;;;;11.30;4.90;;;20.30;99.90;;;;;;5074942;28;20045;-59
2023/07/06 07:39:14;;;;;;;9.43;4.05;;;20.50;99.90;;;;;;5074674;28;20067;-59
2023/07/06 07:41:43;;;;;;;13.73;5.25;;;20.70;99.90;;;;;;5075219;28;20114;-59
2023/07/06 07:44:09;;;;;;;11.63;4.45;;;20.50;99.90;;;;;;5074412;28;20426;-59
2023/07/06 07:46:35;;;;;;;6.57;3.58;;;20.70;99.90;;;;;;5074222;28;20053;-59
2023/07/06 07:49:01;;;;;;;8.48;3.78;;;21.20;99.90;;;;;;5073768;28;20052;-58
2023/07/06 07:51:28;;;;;;;11.07;3.78;;;21.10;99.90;;;;;;5074598;28;20556;-59
2023/07/06 07:53:55;;;;;;;8.45;3.05;;;21.20;99.90;;;;;;5074341;28;20112;-59
2023/07/06 07:56:23;;;;;;;8.70;3.42;;;21.40;99.90;;;;;;5074579;28;20079;-59
2023/07/06 07:58:49;;;;;;;4.97;2.70;;;21.60;99.90;;;;;;5074597;28;20040;-59
2023/07/06 08:01:18;;;;;;;4.63;2.28;;;21.70;99.90;;;;;;5072818;28;20036;-59
2023/07/06 08:03:44;;;;;;;4.70;1.88;;;21.40;99.90;;;;;;5073030;28;20048;-59
2023/07/06 08:06:16;;;;;;;3.83;1.75;;;21.30;99.90;;;;;;5074250;28;20047;-58
2023/07/06 08:08:43;;;;;;;7.32;2.42;;;21.30;99.90;;;;;;5074137;28;20068;-59
2023/07/06 08:11:14;;;;;;;9.00;2.00;;;21.70;99.90;;;;;;5074354;28;20067;-59
2023/07/06 08:13:40;;;;;;;5.03;1.95;;;21.70;99.90;;;;;;5074358;28;20159;-59
2023/07/06 08:16:06;;;;;;;6.78;2.03;;;21.80;99.90;;;;;;5073790;28;20119;-59
2023/07/06 08:18:32;;;;;;;9.15;2.05;;;21.90;99.90;;;;;;5074293;28;20036;-58
2023/07/06 08:20:59;;;;;;;9.30;1.95;;;21.90;99.90;;;;;;5074117;28;20504;-59
2023/07/06 08:23:28;;;;;;;4.68;1.80;;;21.70;99.90;;;;;;5073626;28;20082;-59
2023/07/06 08:25:56;;;;;;;8.15;1.95;;;21.30;99.90;;;;;;5074077;28;20101;-59
2023/07/06 08:28:28;;;;;;;6.05;1.40;;;20.90;99.90;;;;;;5073936;28;20048;-59
2023/07/06 08:30:54;;;;;;;4.95;1.80;;;20.70;99.90;;;;;;5073763;28;20036;-59
2023/07/06 08:33:23;;;;;;;3.45;1.60;;;20.40;99.90;;;;;;5073640;28;20094;-59
2023/07/06 08:35:50;;;;;;;4.93;1.40;;;20.30;99.90;;;;;;5073619;28;20036;-59
2023/07/06 08:38:16;;;;;;;6.63;1.65;;;20.20;99.90;;;;;;5073462;28;20123;-59
2023/07/06 08:40:42;;;;;;;4.60;1.70;;;20.10;99.90;;;;;;5073492;28;20052;-58
2023/07/06 08:43:36;;;;;;;6.72;2.58;;;19.90;99.90;;;;;;5073675;28;20040;-59
2023/07/06 08:46:04;;;;;;;6.70;1.85;;;19.80;99.90;;;;;;5058114;28;20056;-59
2023/07/06 08:48:33;;;;;;;6.40;2.13;;;19.70;99.90;;;;;;5074025;28;20055;-59
2023/07/06 08:51:23;;;;;;;4.25;1.77;;;19.60;99.90;;;;;;5073565;28;20040;-59
2023/07/06 08:53:56;;;;;;;9.77;2.17;;;19.50;99.90;;;;;;5073291;28;20041;-59
2023/07/06 08:56:25;;;;;;;8.02;1.95;;;19.50;99.90;;;;;;5072921;28;20076;-59
2023/07/06 08:58:52;;;;;;;4.55;1.65;;;19.50;99.90;;;;;;5072117;28;20513;-59
2023/07/06 09:01:22;;;;;;;4.95;1.50;;;19.50;99.90;;;;;;5059365;28;20040;-58
2023/07/06 09:03:55;;;;;;;6.00;1.80;;;19.60;99.90;;;;;;5073270;28;20040;-59
2023/07/06 09:06:26;;;;;;;5.88;1.85;;;19.60;99.90;;;;;;5071872;28;20044;-58
2023/07/06 09:09:01;;;;;;;4.63;1.80;;;19.60;99.90;;;;;;5073178;28;20044;-59
2023/07/06 09:11:27;;;;;;;5.03;1.63;;;19.50;99.90;;;;;;5073268;28;20044;-59
2023/07/06 09:13:56;;;;;;;6.20;1.83;;;19.40;99.90;;;;;;5072821;28;20049;-58
2023/07/06 09:16:24;;;;;;;4.80;1.50;;;19.40;99.90;;;;;;5073341;28;20374;-59
2023/07/06 09:18:53;;;;;;;5.95;1.70;;;19.40;99.90;;;;;;5071485;28;20048;-58
2023/07/06 09:21:25;;;;;;;5.95;1.63;;;19.60;99.90;;;;;;5073305;28;20078;-58
2023/07/06 09:23:51;;;;;;;5.25;1.80;;;20.00;99.90;;;;;;5072706;28;20043;-58
2023/07/06 09:26:33;;;;;;;3.45;1.67;;;20.30;99.90;;;;;;5073400;28;20375;-58
2023/07/06 09:29:10;;;;;;;5.03;1.73;;;20.50;99.90;;;;;;5072961;28;20078;-59
2023/07/06 09:31:36;;;;;;;2.85;1.42;;;20.50;99.90;;;;;;5072841;28;20128;-59
2023/07/06 09:34:07;;;;;;;3.10;1.70;;;20.70;99.90;;;;;;5072733;28;20394;-59
2023/07/06 09:36:33;;;;;;;6.75;2.67;;;21.00;99.90;;;;;;5071033;28;20067;-58
2023/07/06 09:39:08;;;;;;;3.47;1.30;;;21.30;99.90;;;;;;5072347;28;20135;-59
2023/07/06 09:41:37;;;;;;;3.58;1.45;;;21.40;99.90;;;;;;5072623;28;20402;-59
2023/07/06 09:44:03;;;;;;;;;;;21.40;99.90;;;;;;5073310;28;20076;-59
2023/07/06 09:46:36;;;;;;;4.25;1.50;;;21.30;99.90;;;;;;5073241;28;19916;-59
2023/07/06 09:49:10;;;;;;;8.85;1.85;;;21.10;99.90;;;;;;5073011;28;20040;-59
2023/07/06 09:51:44;;;;;;;4.80;1.15;;;20.90;99.90;;;;;;5072788;28;20044;-59
2023/07/06 09:54:17;;;;;;;3.65;1.50;;;20.80;99.90;;;;;;5071735;28;20037;-60
2023/07/06 09:56:43;;;;;;;4.82;1.70;;;21.50;99.90;;;;;;5071315;28;20068;-58
2023/07/06 09:59:11;;;;;;;9.32;1.73;;;22.50;99.90;;;;;;5071300;28;20487;-59
2023/07/06 10:01:55;;;;;;;4.45;1.90;;;23.20;99.90;;;;;;5057338;28;20445;-60
2023/07/06 10:04:44;;;;;;;2.80;1.23;;;23.90;99.90;;;;;;5071640;28;20037;-60
2023/07/06 10:07:13;;;;;;;3.78;1.67;;;23.90;99.90;;;;;;5059403;28;20048;-59
2023/07/06 10:09:40;;;;;;;;;;;24.60;99.90;;;;;;5073670;28;20045;-60
2023/07/06 10:12:14;;;;;;;6.65;1.38;;;24.00;99.90;;;;;;5075242;28;20008;-59
2023/07/06 10:14:49;;;;;;;2.60;1.30;;;23.80;99.90;;;;;;5075462;28;20041;-59
2023/07/06 10:17:37;;;;;;;4.55;1.60;;;24.20;99.90;;;;;;5067205;28;20087;-59
2023/07/06 10:20:22;;;;;;;6.13;1.50;;;24.80;99.90;;;;;;5075086;28;20047;-59
2023/07/06 10:23:06;;;;;;;6.00;1.27;;;24.90;99.90;;;;;;5062478;28;20043;-59
2023/07/06 10:25:56;;;;;;;2.70;1.10;;;25.10;99.90;;;;;;5074924;28;20036;-60
2023/07/06 10:28:23;;;;;;;;;;;25.60;99.90;;;;;;5075299;28;20040;-60
2023/07/06 10:30:53;;;;;;;4.65;1.25;;;26.10;99.90;;;;;;5074805;28;19920;-60
2023/07/06 10:33:29;;;;;;;4.97;1.70;;;25.60;99.90;;;;;;5075030;28;20048;-60
2023/07/06 10:35:58;;;;;;;5.05;1.60;;;25.40;99.90;;;;;;5074540;28;20040;-60
2023/07/06 10:38:25;;;;;;;5.07;1.33;;;26.20;99.90;;;;;;5074754;28;20041;-61
2023/07/06 10:41:12;;;;;;;4.63;1.33;;;25.90;99.90;;;;;;5074529;28;20505;-60
2023/07/06 10:43:43;;;;;;;2.28;1.27;;;25.00;99.90;;;;;;5074495;28;20074;-61
2023/07/06 10:46:30;;;;;;;4.07;1.40;;;25.80;99.90;;;;;;5074445;28;20564;-61
2023/07/06 10:48:57;;;;;;;4.00;0.90;;;25.80;99.70;;;;;;5074722;28;20119;-60
2023/07/06 10:51:27;;;;;;;4.60;1.25;;;25.90;99.70;;;;;;5074461;28;20075;-60
2023/07/06 10:54:21;;;;;;;2.25;1.10;;;26.50;99.90;;;;;;5074636;28;20040;-60
2023/07/06 10:57:12;;;;;;;3.08;1.33;;;26.60;98.60;;;;;;5061538;28;20032;-60
2023/07/06 10:59:41;;;;;;;5.35;1.25;;;26.50;98.00;;;;;;5072590;28;20037;-60
2023/07/06 11:02:33;;;;;;;4.50;1.15;;;26.60;97.90;;;;;;5062471;28;20111;-61
2023/07/06 11:05:16;;;;;;;4.35;0.98;;;26.50;98.60;;;;;;5074270;28;20044;-61
2023/07/06 11:07:46;;;;;;;3.15;1.00;;;26.50;99.20;;;;;;5074211;28;20044;-60
2023/07/06 11:10:12;;;;;;;11.63;1.52;;;26.00;99.20;;;;;;5073915;28;20071;-61
2023/07/06 11:13:01;;;;;;;11.57;1.73;;;25.70;99.40;;;;;;5074037;28;20137;-60
2023/07/06 11:15:30;;;;;;;2.95;1.13;;;25.70;98.10;;;;;;5073845;28;20111;-59
2023/07/06 11:17:57;;;;;;;2.75;1.00;;;25.90;98.00;;;;;;5074034;28;20036;-59
2023/07/06 11:20:26;;;;;;;5.68;1.23;;;25.80;97.30;;;;;;5071324;28;20475;-59
2023/07/06 11:23:04;;;;;;;7.25;1.08;;;25.50;98.10;;;;;;5074257;28;20041;-60
2023/07/06 11:25:31;;;;;;;3.45;1.15;;;25.20;98.50;;;;;;5073905;28;20115;-60
2023/07/06 11:28:06;;;;;;;1.88;1.20;;;24.70;99.30;;;;;;5073895;28;20079;-59
2023/07/06 11:30:32;;;;;;;2.47;1.50;;;24.20;99.30;;;;;;5072411;28;20476;-59
2023/07/06 11:33:09;;;;;;;6.13;1.40;;;23.70;99.90;;;;;;5073631;28;20082;-59
2023/07/06 11:35:58;;;;;;;2.13;1.20;;;23.50;99.90;;;;;;5073559;28;20402;-59
2023/07/06 11:38:45;;;;;;;3.92;1.00;;;23.10;99.90;;;;;;5073566;28;20218;-60
2023/07/06 11:41:44;;;;;;;5.47;1.40;;;22.80;99.90;;;;;;5060148;28;20125;-59
2023/07/06 11:44:31;;;;;;;4.50;1.42;;;22.50;99.90;;;;;;5031418;28;20042;-59
2023/07/06 11:47:07;;;;;;;5.75;1.67;;;22.40;99.90;;;;;;5031443;28;20045;-60
2023/07/06 11:49:43;;;;;;;6.78;1.58;;;22.20;99.90;;;;;;5030966;28;20511;-59
2023/07/06 11:52:29;;;;;;;4.88;1.60;;;22.20;99.90;;;;;;5031239;28;20083;-59
2023/07/06 11:55:18;;;;;;;7.07;1.55;;;22.20;99.90;;;;;;5031247;28;20045;-59
2023/07/06 11:58:04;;;;;;;5.30;1.88;;;22.20;99.90;;;;;;5031141;28;20077;-60
2023/07/06 12:03:06;;;;;;;7.23;1.50;;;22.30;99.90;;;;;;5030952;28;20041;-59
2023/07/06 12:05:37;;;;;;;4.82;1.63;;;22.40;99.90;;;;;;5031145;28;20276;-59
2023/07/06 12:08:19;;;;;;;1.75;1.58;;;22.60;99.90;;;;;;5030849;28;20116;-59
2023/07/06 12:10:51;;;;;;;7.40;1.75;;;22.70;99.90;;;;;;5030808;28;20055;-59
2023/07/06 12:13:21;;;;;;;7.35;1.85;;;22.60;99.90;;;;;;5030880;28;20447;-59
2023/07/06 12:15:48;;;;;;;3.90;1.50;;;22.60;99.90;;;;;;5030599;28;20488;-60
2023/07/06 12:18:15;;;;;;;4.57;1.52;;;22.40;99.90;;;;;;5030722;28;20392;-59
2023/07/06 12:20:42;;;;;;;3.88;1.77;;;22.30;99.90;;;;;;5052596;28;20048;-60
2023/07/06 12:23:12;;;;;;;9.13;1.73;;;22.30;99.90;;;;;;5072625;28;20090;-60
2023/07/06 12:25:40;;;;;;;8.52;1.85;;;22.30;99.90;;;;;;5072870;28;20044;-60
2023/07/06 12:28:11;;;;;;;6.50;1.77;;;22.20;99.90;;;;;;5072591;28;20512;-60
2023/07/06 12:30:37;;;;;;;5.15;1.77;;;22.10;99.90;;;;;;5070853;28;20025;-60
2023/07/06 12:33:10;;;;;;;6.07;1.60;;;22.30;99.90;;;;;;5072596;28;20072;-59
2023/07/06 12:35:37;;;;;;;3.65;1.50;;;22.90;99.90;;;;;;5072328;28;20047;-60
2023/07/06 12:38:06;;;;;;;3.75;1.50;;;23.30;99.90;;;;;;5072253;28;20032;-60
2023/07/06 12:40:33;;;;;;;6.28;2.00;;;24.00;99.90;;;;;;5072264;28;20056;-60
2023/07/06 12:43:00;;;;;;;4.40;1.35;;;24.40;99.90;;;;;;5072433;28;20429;-60
2023/07/06 12:45:29;;;;;;;4.22;1.67;;;24.70;99.90;;;;;;5072149;28;20090;-60
2023/07/06 12:48:06;;;;;;;5.15;1.63;;;24.90;99.90;;;;;;5072477;28;20105;-59
2023/07/06 12:50:41;;;;;;;4.20;0.95;;;25.10;99.90;;;;;;5072381;28;20068;-59
2023/07/06 12:53:14;;;;;;;1.52;1.20;;;25.20;99.90;;;;;;5071945;28;20471;-60
2023/07/06 12:55:41;;;;;;;3.92;1.20;;;25.20;99.90;;;;;;5072196;28;20033;-60
2023/07/06 12:58:26;;;;;;;3.65;1.13;;;25.10;99.90;;;;;;5072036;28;20033;-61
2023/07/06 13:00:52;;;;;;;3.00;1.33;;;25.00;99.90;;;;;;5060814;28;20154;-59
2023/07/06 13:03:17;;;;;;;1.60;0.77;;;25.00;99.90;;;;;;5069807;28;20025;-60
2023/07/06 13:05:54;;;;;;;1.80;0.80;;;24.80;99.90;;;;;;5072373;28;20032;-60